sensor_id;sensor_type;location;lat;lon;timestamp;P1;durP1;ratioP1;P2;durP2;ratioP2
65896;SDS011;52677;50.898;10.854;2022-10-16T00:00:37;0.70;;;0.70;;
65896;SDS011;52677;50.898;10.854;2022-10-16T00:02:38;0.80;;;0.80;;
65896;SDS011;52677;50.898;10.854;2022-10-16T00:04:39;0.82;;;0.82;;
65896;SDS011;52677;50.898;10.854;2022-10-16T00:06:39;0.80;;;0.80;;
65896;SDS011;52677;50.898;10.854;2022-10-16T00:08:40;1.00;;;0.90;;
65896;SDS011;52677;50.898;10.854;2022-10-16T00:10:41;0.88;;;0.80;;
65896;SDS011;52677;50.898;10.854;2022-10-16T00:12:41;0.80;;;0.80;;
65896;SDS011;52677;50.898;10.854;2022-10-16T00:14:41;1.33;;;0.90;;
65896;SDS011;52677;50.898;10.854;2022-10-16T00:16:43;0.80;;;0.77;;
65896;SDS011;52677;50.898;10.854;2022-10-16T00:18:44;0.90;;;0.90;;
65896;SDS011;52677;50.898;10.854;2022-10-16T00:20:44;0.85;;;0.85;;
65896;SDS011;52677;50.898;10.854;2022-10-16T00:22:44;1.15;;;1.00;;
65896;SDS011;52677;50.898;10.854;2022-10-16T00:24:45;1.25;;;1.00;;
65896;SDS011;52677;50.898;10.854;2022-10-16T00:26:45;0.90;;;0.77;;
65896;SDS011;52677;50.898;10.854;2022-10-16T00:28:49;1.25;;;1.10;;
65896;SDS011;52677;50.898;10.854;2022-10-16T00:30:51;0.93;;;0.90;;
65896;SDS011;52677;50.898;10.854;2022-10-16T00:32:51;1.33;;;0.98;;
65896;SDS011;52677;50.898;10.854;2022-10-16T00:34:52;1.10;;;1.00;;
65896;SDS011;52677;50.898;10.854;2022-10-16T00:36:54;1.10;;;1.00;;
65896;SDS011;52677;50.898;10.854;2022-10-16T00:38:55;0.95;;;0.90;;
65896;SDS011;52677;50.898;10.854;2022-10-16T00:40:59;1.65;;;0.93;;
65896;SDS011;52677;50.898;10.854;2022-10-16T00:43:00;1.60;;;1.00;;
65896;SDS011;52677;50.898;10.854;2022-10-16T00:45:00;1.25;;;1.13;;
65896;SDS011;52677;50.898;10.854;2022-10-16T00:47:00;0.90;;;0.90;;
65896;SDS011;52677;50.898;10.854;2022-10-16T00:49:14;1.67;;;0.82;;
65896;SDS011;52677;50.898;10.854;2022-10-16T00:51:17;1.35;;;0.98;;
65896;SDS011;52677;50.898;10.854;2022-10-16T00:53:21;0.80;;;0.80;;
65896;SDS011;52677;50.898;10.854;2022-10-16T00:55:23;1.63;;;1.08;;
65896;SDS011;52677;50.898;10.854;2022-10-16T00:57:24;0.98;;;0.90;;
65896;SDS011;52677;50.898;10.854;2022-10-16T00:59:35;2.08;;;1.10;;
65896;SDS011;52677;50.898;10.854;2022-10-16T01:01:38;1.00;;;0.90;;
65896;SDS011;52677;50.898;10.854;2022-10-16T01:03:38;0.98;;;0.93;;
65896;SDS011;52677;50.898;10.854;2022-10-16T01:05:39;1.27;;;1.17;;
65896;SDS011;52677;50.898;10.854;2022-10-16T01:07:56;1.42;;;1.10;;
65896;SDS011;52677;50.898;10.854;2022-10-16T01:17:18;1.27;;;1.13;;
65896;SDS011;52677;50.898;10.854;2022-10-16T01:22:04;1.50;;;1.20;;
65896;SDS011;52677;50.898;10.854;2022-10-16T01:31:29;1.05;;;0.95;;
65896;SDS011;52677;50.898;10.854;2022-10-16T01:33:35;2.20;;;1.10;;
65896;SDS011;52677;50.898;10.854;2022-10-16T01:35:42;1.42;;;1.13;;
65896;SDS011;52677;50.898;10.854;2022-10-16T01:39:46;1.80;;;1.13;;
65896;SDS011;52677;50.898;10.854;2022-10-16T01:41:54;1.92;;;1.08;;
65896;SDS011;52677;50.898;10.854;2022-10-16T01:44:17;3.35;;;1.02;;
65896;SDS011;52677;50.898;10.854;2022-10-16T01:46:21;1.58;;;1.10;;
65896;SDS011;52677;50.898;10.854;2022-10-16T01:48:22;1.10;;;0.90;;
65896;SDS011;52677;50.898;10.854;2022-10-16T01:50:23;1.30;;;1.10;;
65896;SDS011;52677;50.898;10.854;2022-10-16T01:52:25;1.35;;;1.05;;
65896;SDS011;52677;50.898;10.854;2022-10-16T01:54:29;1.88;;;0.95;;
65896;SDS011;52677;50.898;10.854;2022-10-16T01:56:31;1.02;;;0.95;;
65896;SDS011;52677;50.898;10.854;2022-10-16T01:58:34;1.33;;;1.20;;
65896;SDS011;52677;50.898;10.854;2022-10-16T02:00:38;2.05;;;1.23;;
65896;SDS011;52677;50.898;10.854;2022-10-16T02:02:41;1.20;;;1.10;;
65896;SDS011;52677;50.898;10.854;2022-10-16T02:05:20;1.20;;;1.10;;
65896;SDS011;52677;50.898;10.854;2022-10-16T02:07:23;2.03;;;1.17;;
65896;SDS011;52677;50.898;10.854;2022-10-16T02:09:24;3.95;;;0.90;;
65896;SDS011;52677;50.898;10.854;2022-10-16T02:11:24;1.30;;;1.20;;
65896;SDS011;52677;50.898;10.854;2022-10-16T02:13:30;1.15;;;1.10;;
65896;SDS011;52677;50.898;10.854;2022-10-16T02:15:49;0.82;;;0.80;;
65896;SDS011;52677;50.898;10.854;2022-10-16T02:17:50;1.65;;;1.00;;
65896;SDS011;52677;50.898;10.854;2022-10-16T02:19:50;1.10;;;1.00;;
65896;SDS011;52677;50.898;10.854;2022-10-16T02:21:58;1.30;;;1.10;;
65896;SDS011;52677;50.898;10.854;2022-10-16T02:24:05;1.20;;;1.00;;
65896;SDS011;52677;50.898;10.854;2022-10-16T02:26:15;0.95;;;0.90;;
65896;SDS011;52677;50.898;10.854;2022-10-16T02:28:34;2.15;;;1.15;;
65896;SDS011;52677;50.898;10.854;2022-10-16T02:30:43;1.20;;;0.88;;
65896;SDS011;52677;50.898;10.854;2022-10-16T02:32:48;1.90;;;0.80;;
65896;SDS011;52677;50.898;10.854;2022-10-16T02:34:49;1.05;;;0.90;;
65896;SDS011;52677;50.898;10.854;2022-10-16T02:36:51;1.13;;;0.93;;
65896;SDS011;52677;50.898;10.854;2022-10-16T02:38:53;1.45;;;1.00;;
65896;SDS011;52677;50.898;10.854;2022-10-16T02:40:54;1.10;;;0.85;;
65896;SDS011;52677;50.898;10.854;2022-10-16T02:42:55;1.65;;;0.93;;
65896;SDS011;52677;50.898;10.854;2022-10-16T02:44:55;1.95;;;1.10;;
65896;SDS011;52677;50.898;10.854;2022-10-16T02:46:55;1.02;;;0.90;;
65896;SDS011;52677;50.898;10.854;2022-10-16T02:48:55;1.00;;;0.90;;
65896;SDS011;52677;50.898;10.854;2022-10-16T02:50:56;1.13;;;0.98;;
65896;SDS011;52677;50.898;10.854;2022-10-16T02:52:57;0.80;;;0.80;;
65896;SDS011;52677;50.898;10.854;2022-10-16T02:54:57;1.25;;;1.10;;
65896;SDS011;52677;50.898;10.854;2022-10-16T02:56:57;1.20;;;0.93;;
65896;SDS011;52677;50.898;10.854;2022-10-16T02:58:58;0.82;;;0.82;;
65896;SDS011;52677;50.898;10.854;2022-10-16T03:00:58;2.13;;;1.08;;
65896;SDS011;52677;50.898;10.854;2022-10-16T03:02:58;1.00;;;0.90;;
65896;SDS011;52677;50.898;10.854;2022-10-16T03:04:58;1.63;;;1.10;;
65896;SDS011;52677;50.898;10.854;2022-10-16T03:06:59;0.85;;;0.85;;
65896;SDS011;52677;50.898;10.854;2022-10-16T03:08:59;0.90;;;0.90;;
65896;SDS011;52677;50.898;10.854;2022-10-16T03:10:59;6.35;;;2.00;;
65896;SDS011;52677;50.898;10.854;2022-10-16T03:13:00;2.70;;;1.23;;
65896;SDS011;52677;50.898;10.854;2022-10-16T03:15:00;1.15;;;1.05;;
65896;SDS011;52677;50.898;10.854;2022-10-16T03:17:01;2.25;;;1.20;;
65896;SDS011;52677;50.898;10.854;2022-10-16T03:19:02;2.13;;;1.15;;
65896;SDS011;52677;50.898;10.854;2022-10-16T03:21:02;1.13;;;1.02;;
65896;SDS011;52677;50.898;10.854;2022-10-16T03:23:03;1.77;;;1.10;;
65896;SDS011;52677;50.898;10.854;2022-10-16T03:25:03;2.72;;;1.30;;
65896;SDS011;52677;50.898;10.854;2022-10-16T03:27:04;0.80;;;0.80;;
65896;SDS011;52677;50.898;10.854;2022-10-16T03:29:04;1.38;;;1.10;;
65896;SDS011;52677;50.898;10.854;2022-10-16T03:31:05;1.90;;;1.05;;
65896;SDS011;52677;50.898;10.854;2022-10-16T03:33:05;1.45;;;1.10;;
65896;SDS011;52677;50.898;10.854;2022-10-16T03:35:06;2.15;;;1.00;;
65896;SDS011;52677;50.898;10.854;2022-10-16T03:37:06;1.27;;;1.10;;
65896;SDS011;52677;50.898;10.854;2022-10-16T03:39:07;1.45;;;1.08;;
65896;SDS011;52677;50.898;10.854;2022-10-16T03:41:07;2.00;;;1.30;;
65896;SDS011;52677;50.898;10.854;2022-10-16T03:43:07;1.52;;;1.02;;
65896;SDS011;52677;50.898;10.854;2022-10-16T03:45:08;1.10;;;1.00;;
65896;SDS011;52677;50.898;10.854;2022-10-16T03:47:09;2.33;;;0.90;;
65896;SDS011;52677;50.898;10.854;2022-10-16T03:49:09;1.13;;;1.02;;
65896;SDS011;52677;50.898;10.854;2022-10-16T03:51:09;1.05;;;0.95;;
65896;SDS011;52677;50.898;10.854;2022-10-16T03:53:09;1.38;;;1.27;;
65896;SDS011;52677;50.898;10.854;2022-10-16T03:55:10;1.20;;;1.10;;
65896;SDS011;52677;50.898;10.854;2022-10-16T03:57:10;2.10;;;0.90;;
65896;SDS011;52677;50.898;10.854;2022-10-16T03:59:10;1.70;;;0.95;;
65896;SDS011;52677;50.898;10.854;2022-10-16T04:01:11;1.17;;;1.08;;
65896;SDS011;52677;50.898;10.854;2022-10-16T04:03:11;1.10;;;1.00;;
65896;SDS011;52677;50.898;10.854;2022-10-16T04:05:11;1.10;;;1.00;;
65896;SDS011;52677;50.898;10.854;2022-10-16T04:07:12;0.93;;;0.93;;
65896;SDS011;52677;50.898;10.854;2022-10-16T04:09:12;2.15;;;0.85;;
65896;SDS011;52677;50.898;10.854;2022-10-16T04:11:12;2.70;;;1.30;;
65896;SDS011;52677;50.898;10.854;2022-10-16T04:13:13;1.42;;;1.20;;
65896;SDS011;52677;50.898;10.854;2022-10-16T04:15:13;1.50;;;1.30;;
65896;SDS011;52677;50.898;10.854;2022-10-16T04:17:13;2.53;;;1.00;;
65896;SDS011;52677;50.898;10.854;2022-10-16T04:19:13;2.15;;;1.00;;
65896;SDS011;52677;50.898;10.854;2022-10-16T04:21:14;1.27;;;1.05;;
65896;SDS011;52677;50.898;10.854;2022-10-16T04:23:14;1.40;;;1.30;;
65896;SDS011;52677;50.898;10.854;2022-10-16T04:25:14;1.00;;;0.95;;
65896;SDS011;52677;50.898;10.854;2022-10-16T04:27:15;1.65;;;1.00;;
65896;SDS011;52677;50.898;10.854;2022-10-16T04:29:15;1.95;;;1.10;;
65896;SDS011;52677;50.898;10.854;2022-10-16T04:31:15;0.90;;;0.90;;
65896;SDS011;52677;50.898;10.854;2022-10-16T04:33:15;1.67;;;1.23;;
65896;SDS011;52677;50.898;10.854;2022-10-16T04:35:16;1.80;;;1.25;;
65896;SDS011;52677;50.898;10.854;2022-10-16T04:37:17;4.22;;;1.38;;
65896;SDS011;52677;50.898;10.854;2022-10-16T04:39:18;1.58;;;1.48;;
65896;SDS011;52677;50.898;10.854;2022-10-16T04:41:18;4.18;;;1.40;;
65896;SDS011;52677;50.898;10.854;2022-10-16T04:43:18;10.73;;;6.43;;
65896;SDS011;52677;50.898;10.854;2022-10-16T04:45:19;12.48;;;10.80;;
65896;SDS011;52677;50.898;10.854;2022-10-16T04:47:19;17.15;;;11.07;;
65896;SDS011;52677;50.898;10.854;2022-10-16T04:49:19;13.57;;;11.70;;
65896;SDS011;52677;50.898;10.854;2022-10-16T04:51:20;19.23;;;14.10;;
65896;SDS011;52677;50.898;10.854;2022-10-16T04:53:20;14.80;;;10.52;;
65896;SDS011;52677;50.898;10.854;2022-10-16T04:55:20;13.25;;;10.77;;
65896;SDS011;52677;50.898;10.854;2022-10-16T04:57:21;10.80;;;9.20;;
65896;SDS011;52677;50.898;10.854;2022-10-16T04:59:21;10.70;;;8.57;;
65896;SDS011;52677;50.898;10.854;2022-10-16T05:01:22;5.50;;;3.88;;
65896;SDS011;52677;50.898;10.854;2022-10-16T05:03:22;7.63;;;3.65;;
65896;SDS011;52677;50.898;10.854;2022-10-16T05:05:22;5.75;;;3.40;;
65896;SDS011;52677;50.898;10.854;2022-10-16T05:07:23;5.22;;;2.50;;
65896;SDS011;52677;50.898;10.854;2022-10-16T05:09:23;4.63;;;3.83;;
65896;SDS011;52677;50.898;10.854;2022-10-16T05:11:24;4.18;;;3.65;;
65896;SDS011;52677;50.898;10.854;2022-10-16T05:13:24;4.85;;;3.10;;
65896;SDS011;52677;50.898;10.854;2022-10-16T05:15:24;3.10;;;2.50;;
65896;SDS011;52677;50.898;10.854;2022-10-16T05:17:25;3.60;;;2.60;;
65896;SDS011;52677;50.898;10.854;2022-10-16T05:19:26;2.60;;;2.40;;
65896;SDS011;52677;50.898;10.854;2022-10-16T05:21:26;2.83;;;2.53;;
65896;SDS011;52677;50.898;10.854;2022-10-16T05:23:26;7.15;;;2.90;;
65896;SDS011;52677;50.898;10.854;2022-10-16T05:25:26;3.38;;;2.85;;
65896;SDS011;52677;50.898;10.854;2022-10-16T05:27:27;4.30;;;2.95;;
65896;SDS011;52677;50.898;10.854;2022-10-16T05:29:27;4.63;;;3.00;;
65896;SDS011;52677;50.898;10.854;2022-10-16T05:31:27;5.50;;;2.30;;
65896;SDS011;52677;50.898;10.854;2022-10-16T05:33:27;4.55;;;2.30;;
65896;SDS011;52677;50.898;10.854;2022-10-16T05:35:28;5.43;;;2.60;;
65896;SDS011;52677;50.898;10.854;2022-10-16T05:37:28;8.77;;;3.97;;
65896;SDS011;52677;50.898;10.854;2022-10-16T05:39:28;7.47;;;3.25;;
65896;SDS011;52677;50.898;10.854;2022-10-16T05:41:29;6.43;;;3.15;;
65896;SDS011;52677;50.898;10.854;2022-10-16T05:43:29;7.05;;;3.20;;
65896;SDS011;52677;50.898;10.854;2022-10-16T05:45:31;8.98;;;3.30;;
65896;SDS011;52677;50.898;10.854;2022-10-16T05:47:31;4.75;;;2.97;;
65896;SDS011;52677;50.898;10.854;2022-10-16T05:49:32;7.15;;;2.70;;
65896;SDS011;52677;50.898;10.854;2022-10-16T05:51:32;5.80;;;2.80;;
65896;SDS011;52677;50.898;10.854;2022-10-16T05:53:33;6.18;;;3.00;;
65896;SDS011;52677;50.898;10.854;2022-10-16T05:55:34;4.80;;;2.63;;
65896;SDS011;52677;50.898;10.854;2022-10-16T05:57:34;7.13;;;2.50;;
65896;SDS011;52677;50.898;10.854;2022-10-16T05:59:35;3.00;;;2.17;;
65896;SDS011;52677;50.898;10.854;2022-10-16T06:01:35;5.50;;;2.53;;
65896;SDS011;52677;50.898;10.854;2022-10-16T06:03:35;6.53;;;2.33;;
65896;SDS011;52677;50.898;10.854;2022-10-16T06:05:36;4.35;;;1.80;;
65896;SDS011;52677;50.898;10.854;2022-10-16T06:07:36;4.78;;;1.90;;
65896;SDS011;52677;50.898;10.854;2022-10-16T06:09:36;2.92;;;1.90;;
65896;SDS011;52677;50.898;10.854;2022-10-16T06:11:37;3.17;;;2.08;;
65896;SDS011;52677;50.898;10.854;2022-10-16T06:13:37;1.70;;;1.60;;
65896;SDS011;52677;50.898;10.854;2022-10-16T06:15:40;1.70;;;1.42;;
65896;SDS011;52677;50.898;10.854;2022-10-16T06:17:42;3.30;;;2.17;;
65896;SDS011;52677;50.898;10.854;2022-10-16T06:19:42;2.33;;;1.40;;
65896;SDS011;52677;50.898;10.854;2022-10-16T06:21:42;2.30;;;1.60;;
65896;SDS011;52677;50.898;10.854;2022-10-16T06:23:43;2.85;;;1.45;;
65896;SDS011;52677;50.898;10.854;2022-10-16T06:25:45;2.03;;;1.50;;
65896;SDS011;52677;50.898;10.854;2022-10-16T06:27:46;2.25;;;1.35;;
65896;SDS011;52677;50.898;10.854;2022-10-16T06:29:46;2.72;;;1.50;;
65896;SDS011;52677;50.898;10.854;2022-10-16T06:31:46;2.60;;;1.40;;
65896;SDS011;52677;50.898;10.854;2022-10-16T06:33:49;2.25;;;1.25;;
65896;SDS011;52677;50.898;10.854;2022-10-16T06:35:50;1.35;;;1.10;;
65896;SDS011;52677;50.898;10.854;2022-10-16T06:37:52;1.90;;;1.27;;
65896;SDS011;52677;50.898;10.854;2022-10-16T06:39:53;0.90;;;0.90;;
65896;SDS011;52677;50.898;10.854;2022-10-16T06:41:53;1.63;;;1.50;;
65896;SDS011;52677;50.898;10.854;2022-10-16T06:43:53;1.02;;;0.90;;
65896;SDS011;52677;50.898;10.854;2022-10-16T06:45:54;1.13;;;1.00;;
65896;SDS011;52677;50.898;10.854;2022-10-16T06:47:55;1.60;;;1.00;;
65896;SDS011;52677;50.898;10.854;2022-10-16T06:49:56;0.82;;;0.82;;
65896;SDS011;52677;50.898;10.854;2022-10-16T06:51:56;1.02;;;0.80;;
65896;SDS011;52677;50.898;10.854;2022-10-16T06:53:56;1.05;;;0.95;;
65896;SDS011;52677;50.898;10.854;2022-10-16T06:55:56;1.48;;;1.35;;
65896;SDS011;52677;50.898;10.854;2022-10-16T06:57:57;2.60;;;0.95;;
65896;SDS011;52677;50.898;10.854;2022-10-16T06:59:57;0.70;;;0.70;;
65896;SDS011;52677;50.898;10.854;2022-10-16T07:01:57;1.70;;;0.80;;
65896;SDS011;52677;50.898;10.854;2022-10-16T07:03:58;0.80;;;0.80;;
65896;SDS011;52677;50.898;10.854;2022-10-16T07:06:03;1.15;;;0.90;;
65896;SDS011;52677;50.898;10.854;2022-10-16T07:08:04;1.02;;;0.80;;
65896;SDS011;52677;50.898;10.854;2022-10-16T07:10:05;0.70;;;0.70;;
65896;SDS011;52677;50.898;10.854;2022-10-16T07:12:05;1.35;;;1.10;;
65896;SDS011;52677;50.898;10.854;2022-10-16T07:14:14;1.30;;;0.85;;
65896;SDS011;52677;50.898;10.854;2022-10-16T07:16:17;2.63;;;0.88;;
65896;SDS011;52677;50.898;10.854;2022-10-16T07:18:19;1.48;;;0.82;;
65896;SDS011;52677;50.898;10.854;2022-10-16T07:20:20;1.67;;;0.80;;
65896;SDS011;52677;50.898;10.854;2022-10-16T07:22:20;1.00;;;0.90;;
65896;SDS011;52677;50.898;10.854;2022-10-16T07:24:21;1.00;;;0.90;;
65896;SDS011;52677;50.898;10.854;2022-10-16T07:26:22;1.35;;;0.63;;
65896;SDS011;52677;50.898;10.854;2022-10-16T07:28:23;1.23;;;0.87;;
65896;SDS011;52677;50.898;10.854;2022-10-16T07:30:23;3.00;;;0.90;;
65896;SDS011;52677;50.898;10.854;2022-10-16T07:32:24;4.05;;;0.80;;
65896;SDS011;52677;50.898;10.854;2022-10-16T07:34:25;1.20;;;0.75;;
65896;SDS011;52677;50.898;10.854;2022-10-16T07:36:26;1.38;;;0.80;;
65896;SDS011;52677;50.898;10.854;2022-10-16T07:38:27;1.10;;;0.70;;
65896;SDS011;52677;50.898;10.854;2022-10-16T07:40:27;0.60;;;0.60;;
65896;SDS011;52677;50.898;10.854;2022-10-16T07:42:28;0.77;;;0.70;;
65896;SDS011;52677;50.898;10.854;2022-10-16T07:44:28;0.85;;;0.65;;
65896;SDS011;52677;50.898;10.854;2022-10-16T07:46:29;0.60;;;0.60;;
65896;SDS011;52677;50.898;10.854;2022-10-16T07:48:31;1.60;;;0.70;;
65896;SDS011;52677;50.898;10.854;2022-10-16T07:50:32;0.63;;;0.57;;
65896;SDS011;52677;50.898;10.854;2022-10-16T07:52:32;0.70;;;0.68;;
65896;SDS011;52677;50.898;10.854;2022-10-16T07:54:32;0.70;;;0.70;;
65896;SDS011;52677;50.898;10.854;2022-10-16T07:56:33;1.00;;;0.90;;
65896;SDS011;52677;50.898;10.854;2022-10-16T07:58:33;2.92;;;0.90;;
65896;SDS011;52677;50.898;10.854;2022-10-16T08:00:37;1.50;;;1.02;;
65896;SDS011;52677;50.898;10.854;2022-10-16T08:02:37;3.22;;;2.10;;
65896;SDS011;52677;50.898;10.854;2022-10-16T08:04:37;3.35;;;1.77;;
65896;SDS011;52677;50.898;10.854;2022-10-16T08:06:38;2.58;;;1.50;;
65896;SDS011;52677;50.898;10.854;2022-10-16T08:08:39;2.72;;;1.10;;
65896;SDS011;52677;50.898;10.854;2022-10-16T08:10:40;1.77;;;1.05;;
65896;SDS011;52677;50.898;10.854;2022-10-16T08:12:40;0.98;;;0.90;;
65896;SDS011;52677;50.898;10.854;2022-10-16T08:14:40;1.10;;;0.80;;
65896;SDS011;52677;50.898;10.854;2022-10-16T08:16:41;2.38;;;2.17;;
65896;SDS011;52677;50.898;10.854;2022-10-16T08:18:41;3.03;;;0.90;;
65896;SDS011;52677;50.898;10.854;2022-10-16T08:20:42;2.13;;;1.10;;
65896;SDS011;52677;50.898;10.854;2022-10-16T08:22:42;2.67;;;0.88;;
65896;SDS011;52677;50.898;10.854;2022-10-16T08:24:43;1.13;;;1.02;;
65896;SDS011;52677;50.898;10.854;2022-10-16T08:26:43;1.67;;;0.95;;
65896;SDS011;52677;50.898;10.854;2022-10-16T08:28:43;1.10;;;0.98;;
65896;SDS011;52677;50.898;10.854;2022-10-16T08:30:44;2.90;;;1.10;;
65896;SDS011;52677;50.898;10.854;2022-10-16T08:32:44;3.03;;;1.33;;
65896;SDS011;52677;50.898;10.854;2022-10-16T08:34:44;1.10;;;1.00;;
65896;SDS011;52677;50.898;10.854;2022-10-16T08:36:45;1.70;;;1.10;;
65896;SDS011;52677;50.898;10.854;2022-10-16T08:38:48;1.50;;;1.20;;
65896;SDS011;52677;50.898;10.854;2022-10-16T08:40:49;0.95;;;0.90;;
65896;SDS011;52677;50.898;10.854;2022-10-16T08:47:33;1.10;;;1.00;;
65896;SDS011;52677;50.898;10.854;2022-10-16T08:49:43;3.53;;;1.00;;
65896;SDS011;52677;50.898;10.854;2022-10-16T08:51:59;2.25;;;1.10;;
65896;SDS011;52677;50.898;10.854;2022-10-16T08:54:04;1.08;;;0.95;;
65896;SDS011;52677;50.898;10.854;2022-10-16T08:56:05;0.85;;;0.82;;
65896;SDS011;52677;50.898;10.854;2022-10-16T08:58:16;0.85;;;0.85;;
65896;SDS011;52677;50.898;10.854;2022-10-16T09:00:18;1.20;;;1.10;;
65896;SDS011;52677;50.898;10.854;2022-10-16T09:02:22;1.23;;;1.05;;
65896;SDS011;52677;50.898;10.854;2022-10-16T09:04:31;1.02;;;0.93;;
65896;SDS011;52677;50.898;10.854;2022-10-16T09:09:35;1.08;;;0.98;;
65896;SDS011;52677;50.898;10.854;2022-10-16T09:14:22;2.25;;;1.60;;
65896;SDS011;52677;50.898;10.854;2022-10-16T09:16:36;1.67;;;1.23;;
65896;SDS011;52677;50.898;10.854;2022-10-16T09:21:06;2.67;;;1.60;;
65896;SDS011;52677;50.898;10.854;2022-10-16T09:23:14;1.40;;;1.20;;
65896;SDS011;52677;50.898;10.854;2022-10-16T09:25:16;2.85;;;1.42;;
65896;SDS011;52677;50.898;10.854;2022-10-16T09:27:20;1.50;;;1.30;;
65896;SDS011;52677;50.898;10.854;2022-10-16T09:29:20;1.50;;;1.40;;
65896;SDS011;52677;50.898;10.854;2022-10-16T09:31:23;2.25;;;1.70;;
65896;SDS011;52677;50.898;10.854;2022-10-16T09:33:27;1.80;;;1.40;;
65896;SDS011;52677;50.898;10.854;2022-10-16T09:35:40;1.50;;;1.40;;
65896;SDS011;52677;50.898;10.854;2022-10-16T09:37:43;3.85;;;1.42;;
65896;SDS011;52677;50.898;10.854;2022-10-16T09:39:46;3.13;;;1.63;;
65896;SDS011;52677;50.898;10.854;2022-10-16T09:41:47;1.35;;;1.25;;
65896;SDS011;52677;50.898;10.854;2022-10-16T09:43:49;2.45;;;2.25;;
65896;SDS011;52677;50.898;10.854;2022-10-16T09:45:55;1.92;;;1.50;;
65896;SDS011;52677;50.898;10.854;2022-10-16T09:47:56;2.38;;;1.00;;
65896;SDS011;52677;50.898;10.854;2022-10-16T09:50:01;1.45;;;1.23;;
65896;SDS011;52677;50.898;10.854;2022-10-16T09:52:09;1.10;;;1.00;;
65896;SDS011;52677;50.898;10.854;2022-10-16T09:54:13;1.20;;;1.10;;
65896;SDS011;52677;50.898;10.854;2022-10-16T09:56:26;1.30;;;1.10;;
65896;SDS011;52677;50.898;10.854;2022-10-16T09:58:32;3.55;;;1.10;;
65896;SDS011;52677;50.898;10.854;2022-10-16T10:00:33;2.55;;;1.45;;
65896;SDS011;52677;50.898;10.854;2022-10-16T10:02:34;2.13;;;1.75;;
65896;SDS011;52677;50.898;10.854;2022-10-16T10:04:40;4.55;;;3.03;;
65896;SDS011;52677;50.898;10.854;2022-10-16T10:08:58;5.20;;;2.97;;
65896;SDS011;52677;50.898;10.854;2022-10-16T10:11:01;11.77;;;6.90;;
65896;SDS011;52677;50.898;10.854;2022-10-16T10:13:02;5.60;;;3.38;;
65896;SDS011;52677;50.898;10.854;2022-10-16T10:15:11;7.10;;;4.10;;
65896;SDS011;52677;50.898;10.854;2022-10-16T10:19:26;2.53;;;1.90;;
65896;SDS011;52677;50.898;10.854;2022-10-16T10:21:27;4.25;;;1.80;;
65896;SDS011;52677;50.898;10.854;2022-10-16T10:23:28;2.15;;;1.95;;
65896;SDS011;52677;50.898;10.854;2022-10-16T10:25:39;2.30;;;1.75;;
65896;SDS011;52677;50.898;10.854;2022-10-16T10:32:50;2.17;;;1.10;;
65896;SDS011;52677;50.898;10.854;2022-10-16T10:40:28;1.55;;;1.42;;
65896;SDS011;52677;50.898;10.854;2022-10-16T10:42:40;1.55;;;1.45;;
65896;SDS011;52677;50.898;10.854;2022-10-16T10:49:20;1.98;;;1.58;;
65896;SDS011;52677;50.898;10.854;2022-10-16T10:51:59;1.88;;;1.55;;
65896;SDS011;52677;50.898;10.854;2022-10-16T10:56:35;4.18;;;3.17;;
65896;SDS011;52677;50.898;10.854;2022-10-16T10:58:55;5.43;;;3.47;;
65896;SDS011;52677;50.898;10.854;2022-10-16T11:01:14;10.25;;;8.43;;
65896;SDS011;52677;50.898;10.854;2022-10-16T11:06:15;1.95;;;1.60;;
65896;SDS011;52677;50.898;10.854;2022-10-16T11:08:41;2.33;;;1.63;;
65896;SDS011;52677;50.898;10.854;2022-10-16T11:13:10;1.83;;;1.40;;
65896;SDS011;52677;50.898;10.854;2022-10-16T11:15:51;7.03;;;1.70;;
65896;SDS011;52677;50.898;10.854;2022-10-16T11:18:39;1.75;;;1.58;;
65896;SDS011;52677;50.898;10.854;2022-10-16T11:20:50;2.25;;;1.90;;
65896;SDS011;52677;50.898;10.854;2022-10-16T11:22:56;2.50;;;1.70;;
65896;SDS011;52677;50.898;10.854;2022-10-16T11:27:19;2.55;;;1.80;;
65896;SDS011;52677;50.898;10.854;2022-10-16T11:29:29;1.60;;;1.30;;
65896;SDS011;52677;50.898;10.854;2022-10-16T11:31:38;1.90;;;1.30;;
65896;SDS011;52677;50.898;10.854;2022-10-16T11:33:49;2.13;;;1.92;;
65896;SDS011;52677;50.898;10.854;2022-10-16T11:36:07;1.85;;;1.67;;
65896;SDS011;52677;50.898;10.854;2022-10-16T11:40:32;3.72;;;1.85;;
65896;SDS011;52677;50.898;10.854;2022-10-16T11:42:39;4.00;;;1.80;;
65896;SDS011;52677;50.898;10.854;2022-10-16T11:44:48;2.30;;;1.52;;
65896;SDS011;52677;50.898;10.854;2022-10-16T11:53:45;7.95;;;7.15;;
65896;SDS011;52677;50.898;10.854;2022-10-16T11:55:51;21.98;;;20.17;;
65896;SDS011;52677;50.898;10.854;2022-10-16T11:57:53;8.60;;;7.70;;
65896;SDS011;52677;50.898;10.854;2022-10-16T12:00:08;5.47;;;4.97;;
65896;SDS011;52677;50.898;10.854;2022-10-16T12:04:39;3.05;;;2.42;;
65896;SDS011;52677;50.898;10.854;2022-10-16T12:08:55;2.70;;;2.30;;
65896;SDS011;52677;50.898;10.854;2022-10-16T12:11:06;2.75;;;2.33;;
65896;SDS011;52677;50.898;10.854;2022-10-16T12:13:32;3.60;;;1.90;;
65896;SDS011;52677;50.898;10.854;2022-10-16T12:15:33;3.50;;;1.77;;
65896;SDS011;52677;50.898;10.854;2022-10-16T12:17:35;1.73;;;1.40;;
65896;SDS011;52677;50.898;10.854;2022-10-16T12:19:37;4.93;;;1.55;;
65896;SDS011;52677;50.898;10.854;2022-10-16T12:21:37;2.40;;;1.20;;
65896;SDS011;52677;50.898;10.854;2022-10-16T12:23:38;1.13;;;1.02;;
65896;SDS011;52677;50.898;10.854;2022-10-16T12:25:53;2.30;;;1.40;;
65896;SDS011;52677;50.898;10.854;2022-10-16T12:28:05;2.80;;;2.22;;
65896;SDS011;52677;50.898;10.854;2022-10-16T12:30:20;2.97;;;1.20;;
65896;SDS011;52677;50.898;10.854;2022-10-16T12:32:33;1.98;;;1.77;;
65896;SDS011;52677;50.898;10.854;2022-10-16T12:34:37;2.03;;;1.10;;
65896;SDS011;52677;50.898;10.854;2022-10-16T12:36:42;1.60;;;0.93;;
65896;SDS011;52677;50.898;10.854;2022-10-16T12:38:49;0.90;;;0.70;;
65896;SDS011;52677;50.898;10.854;2022-10-16T12:41:01;1.52;;;0.77;;
65896;SDS011;52677;50.898;10.854;2022-10-16T12:44:03;0.95;;;0.80;;
65896;SDS011;52677;50.898;10.854;2022-10-16T12:45:32;1.33;;;0.90;;
65896;SDS011;52677;50.898;10.854;2022-10-16T12:49:36;1.00;;;0.85;;
65896;SDS011;52677;50.898;10.854;2022-10-16T12:51:39;1.13;;;1.00;;
65896;SDS011;52677;50.898;10.854;2022-10-16T12:53:40;1.58;;;1.00;;
65896;SDS011;52677;50.898;10.854;2022-10-16T12:55:42;1.40;;;1.30;;
65896;SDS011;52677;50.898;10.854;2022-10-16T13:07:32;1.60;;;1.20;;
65896;SDS011;52677;50.898;10.854;2022-10-16T13:12:15;2.08;;;1.60;;
65896;SDS011;52677;50.898;10.854;2022-10-16T13:21:25;1.47;;;1.27;;
65896;SDS011;52677;50.898;10.854;2022-10-16T13:26:22;1.80;;;1.33;;
65896;SDS011;52677;50.898;10.854;2022-10-16T13:28:28;1.90;;;1.67;;
65896;SDS011;52677;50.898;10.854;2022-10-16T13:30:32;2.47;;;1.77;;
65896;SDS011;52677;50.898;10.854;2022-10-16T13:32:39;2.05;;;1.77;;
65896;SDS011;52677;50.898;10.854;2022-10-16T13:34:44;2.03;;;1.83;;
65896;SDS011;52677;50.898;10.854;2022-10-16T13:41:24;1.20;;;1.10;;
65896;SDS011;52677;50.898;10.854;2022-10-16T13:43:26;1.10;;;1.00;;
65896;SDS011;52677;50.898;10.854;2022-10-16T13:45:31;0.95;;;0.90;;
65896;SDS011;52677;50.898;10.854;2022-10-16T13:47:31;0.95;;;0.90;;
65896;SDS011;52677;50.898;10.854;2022-10-16T13:49:33;1.50;;;1.20;;
65896;SDS011;52677;50.898;10.854;2022-10-16T13:51:33;4.38;;;1.30;;
65896;SDS011;52677;50.898;10.854;2022-10-16T13:53:34;1.50;;;1.30;;
65896;SDS011;52677;50.898;10.854;2022-10-16T13:55:35;1.20;;;1.10;;